UAAALTBS

Guest
Details From UAAA - Almaty
To LTBS - Dalaman
Flight Number -
Tags Generated
Created
Modified
Stats Distance 2,224 nm / 4,118 km
Max Altitude 0 ft / 0 m
Waypoints 4
Social Downloads 0
Likes 0
Share VATSIM

Download

Looking for another format? Having issues loading an existing format? Contact us
Advertisement - Login to hide

Notes

Generated

Route

UAAA GOKCE DALNB LTBS

ID Type Via Altitude Latitude Longitude Leg Dist Tot Dist Heading (true) Name
O UAAA APT - 0 ft / 0 m 43.34096˚ 77.01807˚ - 0 nm - -
GOKCE FIX - 0 ft / 0 m 38.16333˚ 33.09167˚ 1999 nm 1999 nm 276° / 247° -
DALNB FIX - 0 ft / 0 m 36.68955˚ 28.78193˚ 223 nm 2222 nm 248° / 245° -
O LTBS APT - 0 ft / 0 m 36.70016˚ 28.78809˚ 0 nm 2223 nm 25° / 25° -

Altitude Profile

Advertisement - Login to hide

Weather


0- 5 10 15 20 25 30 35+ Temperature / ° C

Clouds and Precipitation
Forecast for 2017-12-12 00:00 UTC. Updated 2 hours ago

Ground ~20,000 ft ~40,000 ft Winds

UAAA

Details ICAO UAAA (ALA)
Name Almaty Intl
Region Kazakhstan and Kyrgyzstan
Timezone Asia/Almaty (UTC+6.0)
Stats Elevation 2,234 ft / 681 m (AMSL)
Location 43.355235° 77.044570°
Runways 2
Magnetic Variation 5.162° E

METAR

UAAA 120100Z VRB01MPS 2600 BR OVC003 M07/M08 Q1023 R05L/91//60 R05R/3///45 TEMPO 0500 FZFG RMK QBB090

Decode

TAF

TAF TAF UAAA 112300Z 1200/1224 16005MPS 1500 BR FU BKN005 OVC100 TX01/1209Z TNM08/1201Z TEMPO 1200/1205 0200 FZFG VV001 BECMG 1206/1207 04005MPS 5000 SCT010 BKN100 TEMPO 1213/1224 0500 FZFG VV002

Decode

Departure Runways

ID Width Length Bearing (true) Bearing (mag) Surface Threshold Offset Overrun Length
05L 200 ft / 61 m 14,778 ft / 4,504 m 55.73° 50.57° Concrete 0 ft / 0 m 325 ft / 99 m
05R 148 ft / 45 m 14,408 ft / 4,392 m 55.72° 50.56° Asphalt 0 ft / 0 m 226 ft / 69 m
23L 148 ft / 45 m 14,408 ft / 4,392 m 235.75° 230.59° Asphalt 0 ft / 0 m 226 ft / 69 m
23R 200 ft / 61 m 14,778 ft / 4,504 m 235.76° 230.60° Concrete 0 ft / 0 m 390 ft / 119 m

LTBS

Details ICAO LTBS (DLM)
Name DALAMAN
Region Turkey
Timezone Europe/Istanbul (UTC+3.0)
Stats Elevation 20 ft / 6 m (AMSL)
Location 36.713189° 28.792513°
Runways 1
Magnetic Variation 4.879° E

METAR

LTBS 120050Z 06005KT 9999 FEW030 BKN100 11/10 Q1024 NOSIG

Decode

TAF

Not found

Destination Runways

ID Width Length Bearing (true) Bearing (mag) Surface Threshold Offset Overrun Length
01 148 ft / 45 m 9,851 ft / 3,003 m 15.24° 10.36° Concrete 0 ft / 0 m 197 ft / 60 m
19 148 ft / 45 m 9,851 ft / 3,003 m 195.25° 190.37° Concrete 0 ft / 0 m 197 ft / 60 m